Time;durP1;ratioP1;P1;durP2;ratioP2;P2;SDS_P1;SDS_P2;PMS_P1;PMS_P2;Temp;Humidity;BMP_temperature;BMP_pressure;BME280_temperature;BME280_humidity;BME280_pressure;Samples;Min_cycle;Max_cycle;Signal;HPM_P1;HPM_P2
2022/08/07 00:01:08;;;;;;;8.68;7.50;;;742.50;1996.80;;;;;;4993075;28;20026;-77
2022/08/07 00:03:34;;;;;;;9.00;7.65;;;742.50;1996.80;;;;;;4993342;28;20034;-77
2022/08/07 00:06:00;;;;;;;8.63;7.65;;;742.50;1996.80;;;;;;4993327;28;20028;-78
2022/08/07 00:08:27;;;;;;;11.50;7.40;;;742.50;1996.80;;;;;;4993201;28;20026;-77
2022/08/07 00:10:52;;;;;;;12.35;7.80;;;742.50;1996.80;;;;;;4993245;28;20033;-77
2022/08/07 00:13:20;;;;;;;11.70;8.43;;;742.50;1996.80;;;;;;4993075;28;20019;-78
2022/08/07 00:15:47;;;;;;;13.57;8.15;;;717.70;1996.80;;;;;;4993078;28;20026;-77
2022/08/07 00:18:18;;;;;;;10.27;8.02;;;717.70;1996.80;;;;;;4993023;28;20113;-78
2022/08/07 00:20:43;;;;;;;13.85;7.25;;;717.70;1996.80;;;;;;4992942;28;20026;-78
2022/08/07 00:23:09;;;;;;;11.70;6.70;;;717.70;2022.40;;;;;;4992937;28;20447;-76
2022/08/07 00:25:35;;;;;;;15.90;7.68;;;717.70;1996.80;;;;;;4996359;28;20101;-77
2022/08/07 00:28:02;;;;;;;11.35;7.57;;;742.40;2022.40;;;;;;4996717;28;20023;-78
2022/08/07 00:30:28;;;;;;;11.55;7.25;;;717.60;2022.40;;;;;;5002769;28;20049;-77
2022/08/07 00:32:58;;;;;;;11.82;7.35;;;717.50;2048.00;;;;;;5016332;28;20049;-77
2022/08/07 00:35:25;;;;;;;11.95;7.18;;;717.50;2048.00;;;;;;5013516;28;20045;-78
2022/08/07 00:37:51;;;;;;;12.65;7.55;;;717.30;2073.60;;;;;;5006636;28;20361;-77
2022/08/07 00:40:17;;;;;;;9.07;6.95;;;717.50;2048.00;;;;;;5004913;28;20072;-77
2022/08/07 00:42:44;;;;;;;11.65;6.95;;;717.40;2048.00;;;;;;5005399;28;20038;-76
2022/08/07 00:45:10;;;;;;;10.20;6.50;;;717.40;2048.00;;;;;;4997033;28;20030;-77
2022/08/07 00:47:36;;;;;;;15.00;7.00;;;717.50;2048.00;;;;;;4986378;28;20182;-77
2022/08/07 00:50:02;;;;;;;9.60;6.05;;;717.20;2073.60;;;;;;4984999;28;20598;-76
2022/08/07 00:52:28;;;;;;;9.68;6.78;;;717.10;2073.60;;;;;;4986753;28;20408;-77
2022/08/07 00:54:54;;;;;;;8.95;6.22;;;717.20;2073.60;;;;;;4985575;28;20019;-77
2022/08/07 00:57:24;;;;;;;9.52;6.55;;;717.10;2099.20;;;;;;4985314;28;20026;-77
2022/08/07 00:59:50;;;;;;;11.20;6.28;;;717.10;2124.80;;;;;;4988082;28;20027;-78
2022/08/07 01:02:16;;;;;;;7.78;6.25;;;717.10;2124.80;;;;;;4985113;28;20022;-77
2022/08/07 01:04:42;;;;;;;14.18;7.07;;;691.90;2099.20;;;;;;4986993;28;20031;-77
2022/08/07 01:07:08;;;;;;;10.35;6.35;;;716.90;2124.80;;;;;;4986363;28;20028;-77
2022/08/07 01:09:34;;;;;;;13.20;6.90;;;692.10;2150.40;;;;;;4985768;28;20038;-77
2022/08/07 01:12:00;;;;;;;10.75;6.97;;;716.80;2176.00;;;;;;4987471;28;20042;-77
2022/08/07 01:14:26;;;;;;;8.68;6.43;;;716.80;2150.40;;;;;;4976035;28;20034;-77
2022/08/07 01:16:52;;;;;;;9.82;6.60;;;692.10;2150.40;;;;;;4976285;28;20106;-77
2022/08/07 01:19:20;;;;;;;10.88;6.57;;;692.10;2150.40;;;;;;4986162;28;20030;-76
2022/08/07 01:21:48;;;;;;;9.93;5.82;;;692.10;2150.40;;;;;;4985174;28;20027;-77
2022/08/07 01:24:15;;;;;;;11.00;6.05;;;692.00;2176.00;;;;;;4985392;28;20045;-77
2022/08/07 01:26:42;;;;;;;9.27;5.97;;;691.90;2176.00;;;;;;4984312;28;20023;-77
2022/08/07 01:29:08;;;;;;;8.60;5.85;;;691.80;2176.00;;;;;;4985673;28;20022;-76
2022/08/07 01:31:34;;;;;;;12.82;5.72;;;691.70;2201.60;;;;;;4985862;28;20027;-76
2022/08/07 01:34:01;;;;;;;9.07;5.68;;;691.70;2201.60;;;;;;4984303;28;20084;-77
2022/08/07 01:36:28;;;;;;;9.18;5.40;;;691.70;2201.60;;;;;;4985660;28;20074;-76
2022/08/07 01:38:55;;;;;;;7.57;5.55;;;691.80;2201.60;;;;;;4985557;28;20026;-76
2022/08/07 01:41:22;;;;;;;11.82;5.20;;;691.80;2176.00;;;;;;4983829;28;20058;-77
2022/08/07 01:43:48;;;;;;;12.52;5.47;;;691.80;2176.00;;;;;;4985432;28;20019;-76
2022/08/07 01:46:18;;;;;;;7.80;5.03;;;691.80;2150.40;;;;;;4985442;28;20101;-77
2022/08/07 01:48:46;;;;;;;5.38;4.85;;;691.80;2150.40;;;;;;4984014;28;20042;-77
2022/08/07 01:51:20;;;;;;;9.10;5.75;;;691.90;2150.40;;;;;;4986662;28;20026;-76
2022/08/07 01:53:53;;;;;;;9.88;5.50;;;691.80;2176.00;;;;;;4984073;28;20468;-76
2022/08/07 01:56:39;;;;;;;8.10;5.20;;;691.50;2201.60;;;;;;4983710;28;20472;-77
2022/08/07 01:59:10;;;;;;;10.13;4.60;;;691.70;2176.00;;;;;;4989447;28;20042;-76
2022/08/07 02:01:42;;;;;;;11.13;4.93;;;691.60;2176.00;;;;;;4994974;28;20388;-77
2022/08/07 02:04:17;;;;;;;9.10;4.95;;;691.60;2201.60;;;;;;4994608;28;20030;-77
2022/08/07 02:06:44;;;;;;;7.90;4.10;;;691.50;2176.00;;;;;;4994607;28;20022;-77
2022/08/07 02:09:13;;;;;;;6.03;4.13;;;691.30;2227.20;;;;;;4994744;28;20050;-77
2022/08/07 02:11:42;;;;;;;6.28;4.60;;;691.40;2201.60;;;;;;4994282;28;20030;-76
2022/08/07 02:14:09;;;;;;;8.23;4.95;;;691.30;2227.20;;;;;;4994697;28;20034;-76
2022/08/07 02:16:37;;;;;;;7.50;4.50;;;691.30;2227.20;;;;;;4994433;28;20019;-75
2022/08/07 02:19:07;;;;;;;5.97;5.00;;;691.30;2201.60;;;;;;4994293;28;20122;-77
2022/08/07 02:21:36;;;;;;;10.57;4.65;;;691.20;2227.20;;;;;;4994559;28;20018;-76
2022/08/07 02:24:03;;;;;;;11.60;4.65;;;691.20;2227.20;;;;;;4994336;28;20065;-76
2022/08/07 02:26:29;;;;;;;8.25;4.68;;;691.20;2227.20;;;;;;4994201;28;20054;-76
2022/08/07 02:28:57;;;;;;;8.70;4.65;;;666.30;2278.40;;;;;;4994458;28;20027;-76
2022/08/07 02:31:23;;;;;;;11.38;4.53;;;666.30;2304.00;;;;;;4991341;28;20027;-76
2022/08/07 02:33:51;;;;;;;12.52;4.10;;;666.40;2278.40;;;;;;4983124;28;20041;-75
2022/08/07 02:36:18;;;;;;;10.07;3.83;;;666.40;2278.40;;;;;;4984462;28;20018;-77
2022/08/07 02:38:46;;;;;;;8.20;4.80;;;666.30;2278.40;;;;;;4984609;28;20062;-76
2022/08/07 02:41:13;;;;;;;5.57;3.95;;;666.20;2304.00;;;;;;4982601;28;20043;-76
2022/08/07 02:43:41;;;;;;;8.55;4.55;;;666.30;2278.40;;;;;;4984189;28;20120;-75
2022/08/07 02:46:09;;;;;;;5.10;3.88;;;666.20;2304.00;;;;;;4987154;28;20089;-76
2022/08/07 02:48:37;;;;;;;6.45;4.30;;;666.20;2304.00;;;;;;4983171;28;20026;-75
2022/08/07 02:51:10;;;;;;;11.10;4.30;;;666.00;2329.60;;;;;;4983748;28;20446;-76
2022/08/07 02:53:41;;;;;;;8.23;4.22;;;666.00;2355.20;;;;;;4984840;28;20033;-76
2022/08/07 02:56:13;;;;;;;5.82;4.78;;;665.90;2355.20;;;;;;4984474;28;20046;-76
2022/08/07 02:58:41;;;;;;;8.27;3.95;;;665.90;2355.20;;;;;;4983367;28;20101;-76
2022/08/07 03:01:09;;;;;;;10.55;4.45;;;666.00;2355.20;;;;;;4983230;28;20057;-76
2022/08/07 03:03:36;;;;;;;12.25;4.45;;;665.90;2355.20;;;;;;4984649;28;20015;-75
2022/08/07 03:06:03;;;;;;;7.18;4.45;;;666.00;2329.60;;;;;;4983709;28;20031;-77
2022/08/07 03:08:30;;;;;;;5.00;3.70;;;665.90;2355.20;;;;;;4982807;28;20031;-75
2022/08/07 03:10:58;;;;;;;6.28;3.88;;;666.00;2355.20;;;;;;4984699;28;20077;-76
2022/08/07 03:13:24;;;;;;;10.70;4.88;;;665.90;2355.20;;;;;;4966454;28;20616;-76
2022/08/07 03:15:51;;;;;;;7.45;4.25;;;665.90;2380.80;;;;;;4982849;28;20049;-77
2022/08/07 03:18:17;;;;;;;19.90;4.10;;;665.80;2380.80;;;;;;4984588;28;20018;-77
2022/08/07 03:20:45;;;;;;;7.63;3.90;;;665.90;2380.80;;;;;;4966099;28;20597;-77
2022/08/07 03:23:11;;;;;;;5.47;4.43;;;666.00;2355.20;;;;;;4983241;28;20460;-76
2022/08/07 03:25:40;;;;;;;6.85;3.85;;;666.00;2329.60;;;;;;4984336;28;20026;-76
2022/08/07 03:28:12;;;;;;;6.85;4.03;;;666.00;2355.20;;;;;;4983742;28;20070;-77
2022/08/07 03:30:39;;;;;;;9.82;3.90;;;666.00;2355.20;;;;;;4982431;28;20042;-76
2022/08/07 03:33:07;;;;;;;6.45;3.50;;;666.00;2355.20;;;;;;4983678;28;20416;-77
2022/08/07 03:35:35;;;;;;;6.32;4.40;;;666.00;2355.20;;;;;;4984436;28;20511;-76
2022/08/07 03:38:07;;;;;;;5.68;3.67;;;665.90;2380.80;;;;;;4982824;28;20030;-76
2022/08/07 03:40:33;;;;;;;9.00;4.30;;;665.90;2380.80;;;;;;4982175;28;20042;-77
2022/08/07 03:43:00;;;;;;;9.25;4.30;;;665.70;2380.80;;;;;;4985104;28;20046;-76
2022/08/07 03:45:28;;;;;;;12.38;4.85;;;665.90;2380.80;;;;;;4983168;28;20041;-77
2022/08/07 03:47:55;;;;;;;7.72;4.20;;;665.90;2380.80;;;;;;4982331;28;20368;-78
2022/08/07 03:50:23;;;;;;;8.98;3.90;;;665.80;2406.40;;;;;;4984380;28;20116;-76
2022/08/07 03:52:51;;;;;;;4.35;3.58;;;665.90;2380.80;;;;;;4983689;28;20469;-77
2022/08/07 03:55:17;;;;;;;10.55;3.90;;;665.90;2406.40;;;;;;4983484;28;20069;-76
2022/08/07 03:57:45;;;;;;;6.20;3.55;;;665.60;2432.00;;;;;;4981769;28;20034;-77
2022/08/07 04:00:12;;;;;;;8.20;4.03;;;665.90;2432.00;;;;;;4986602;28;20113;-77
2022/08/07 04:02:41;;;;;;;10.68;4.88;;;665.90;2432.00;;;;;;4988136;28;20064;-78
2022/08/07 04:05:07;;;;;;;7.07;4.18;;;665.60;2432.00;;;;;;4985925;28;20088;-77
2022/08/07 04:07:33;;;;;;;6.82;4.13;;;665.60;2432.00;;;;;;4987703;28;20031;-77
2022/08/07 04:10:01;;;;;;;5.32;4.07;;;640.90;2432.00;;;;;;4987756;28;20529;-77
2022/08/07 04:12:29;;;;;;;7.07;3.85;;;640.90;2432.00;;;;;;4985994;28;20045;-78
2022/08/07 04:14:56;;;;;;;7.10;4.15;;;640.90;2432.00;;;;;;4987647;28;20097;-77
2022/08/07 04:17:22;;;;;;;4.72;4.10;;;640.90;2432.00;;;;;;4985050;28;20513;-78
2022/08/07 04:19:49;;;;;;;5.53;4.00;;;665.60;2432.00;;;;;;4986359;28;20034;-78
2022/08/07 04:22:16;;;;;;;8.95;3.70;;;640.70;2432.00;;;;;;4987680;28;20573;-77
2022/08/07 04:24:42;;;;;;;6.30;4.18;;;640.80;2432.00;;;;;;4985933;28;20503;-76
2022/08/07 04:27:08;;;;;;;8.90;3.75;;;640.80;2432.00;;;;;;4990786;28;20541;-76
2022/08/07 04:29:34;;;;;;;5.18;4.03;;;640.60;2432.00;;;;;;4987498;28;20109;-77
2022/08/07 04:32:01;;;;;;;7.25;4.05;;;640.80;2432.00;;;;;;4985993;28;20456;-77
2022/08/07 04:34:27;;;;;;;10.20;4.22;;;640.80;2432.00;;;;;;5006663;28;20030;-77
2022/08/07 04:36:53;;;;;;;7.22;4.03;;;640.70;2432.00;;;;;;5006364;28;20045;-77
2022/08/07 04:39:19;;;;;;;5.03;4.03;;;640.80;2432.00;;;;;;4988804;28;20108;-77
2022/08/07 04:41:45;;;;;;;10.18;3.88;;;640.60;2432.00;;;;;;5003907;28;20069;-77
2022/08/07 04:44:10;;;;;;;7.20;4.18;;;640.80;2432.00;;;;;;4996449;28;20190;-77
2022/08/07 04:47:01;;;;;;;5.22;4.03;;;640.90;2432.00;;;;;;4996464;28;20050;-76
2022/08/07 04:49:42;;;;;;;10.18;4.80;;;640.90;2432.00;;;;;;4996354;28;20089;-77
2022/08/07 04:52:33;;;;;;;9.27;3.88;;;640.70;2432.00;;;;;;4996131;28;20023;-79
2022/08/07 04:55:05;;;;;;;5.18;4.20;;;640.90;2432.00;;;;;;4995986;28;20035;-79
2022/08/07 04:57:56;;;;;;;10.40;4.75;;;665.60;2432.00;;;;;;4996021;28;20037;-79
2022/08/07 05:00:41;;;;;;;5.43;3.83;;;665.60;2432.00;;;;;;4978507;28;20026;-77
2022/08/07 05:03:20;;;;;;;7.47;4.28;;;665.60;2432.00;;;;;;4995989;28;20105;-77
2022/08/07 05:06:01;;;;;;;6.25;3.65;;;640.90;2432.00;;;;;;4996029;28;20034;-78
2022/08/07 05:08:34;;;;;;;15.05;4.00;;;640.80;2432.00;;;;;;4991804;28;20038;-76
2022/08/07 05:11:12;;;;;;;7.45;4.05;;;640.70;2432.00;;;;;;4995403;28;20075;-78
2022/08/07 05:13:48;;;;;;;8.57;4.70;;;640.90;2432.00;;;;;;4995931;28;20036;-80
2022/08/07 05:16:16;;;;;;;10.73;5.60;;;640.90;2432.00;;;;;;4992380;28;20511;-77
2022/08/07 05:18:51;;;;;;;9.32;4.35;;;640.90;2432.00;;;;;;4981218;28;20034;-78
2022/08/07 05:21:22;;;;;;;12.35;4.68;;;665.60;2432.00;;;;;;4963793;28;20030;-77
2022/08/07 05:23:54;;;;;;;8.77;4.85;;;665.70;2432.00;;;;;;4960704;28;20069;-77
2022/08/07 05:26:23;;;;;;;14.90;6.72;;;665.60;2432.00;;;;;;4976782;28;20019;-79
2022/08/07 05:28:52;;;;;;;7.90;3.92;;;665.60;2432.00;;;;;;4987140;28;20041;-77
2022/08/07 05:31:24;;;;;;;6.57;4.72;;;665.60;2432.00;;;;;;4977800;28;20023;-78
2022/08/07 05:33:52;;;;;;;6.25;4.25;;;665.70;2432.00;;;;;;4977746;28;20358;-79
2022/08/07 05:36:19;;;;;;;9.32;5.13;;;665.70;2432.00;;;;;;4981533;28;20077;-77
2022/08/07 05:38:46;;;;;;;9.48;4.43;;;665.70;2432.00;;;;;;4982010;28;20076;-78
2022/08/07 05:41:12;;;;;;;6.68;4.22;;;665.90;2432.00;;;;;;4986168;28;20046;-79
2022/08/07 05:43:39;;;;;;;8.57;4.18;;;665.80;2432.00;;;;;;4979968;28;20023;-78
2022/08/07 05:46:05;;;;;;;11.35;4.38;;;665.90;2432.00;;;;;;4986227;28;20038;-79
2022/08/07 05:48:31;;;;;;;8.77;4.53;;;665.90;2432.00;;;;;;4990715;28;20023;-80
2022/08/07 05:51:00;;;;;;;6.63;4.10;;;666.00;2432.00;;;;;;4991012;28;20026;-76
2022/08/07 05:53:26;;;;;;;8.20;3.78;;;666.10;2432.00;;;;;;5001608;28;20111;-77
2022/08/07 05:55:54;;;;;;;10.80;4.18;;;666.00;2432.00;;;;;;5004315;28;20044;-77
2022/08/07 05:58:23;;;;;;;7.18;4.15;;;666.20;2432.00;;;;;;4974345;28;20042;-77
2022/08/07 06:00:50;;;;;;;7.65;3.70;;;666.30;2432.00;;;;;;4997698;28;20036;-77
2022/08/07 06:03:18;;;;;;;8.00;4.50;;;666.50;2406.40;;;;;;5003300;28;20057;-78
2022/08/07 06:05:47;;;;;;;4.97;3.40;;;666.30;2406.40;;;;;;4987167;28;20030;-79
2022/08/07 06:08:15;;;;;;;5.65;3.97;;;666.30;2406.40;;;;;;4969122;28;20436;-78
2022/08/07 06:10:42;;;;;;;8.07;4.75;;;666.30;2406.40;;;;;;4982424;28;20023;-82
2022/08/07 06:13:08;;;;;;;6.85;4.10;;;666.50;2406.40;;;;;;4982503;28;20022;-81
2022/08/07 06:15:35;;;;;;;6.82;3.85;;;666.50;2380.80;;;;;;4975736;28;20106;-79
2022/08/07 06:18:02;;;;;;;9.27;4.07;;;691.20;2380.80;;;;;;4982369;28;20531;-78
2022/08/07 06:20:30;;;;;;;8.93;4.18;;;691.30;2329.60;;;;;;4979521;28;20146;-79
2022/08/07 06:22:56;;;;;;;5.35;3.95;;;691.30;2329.60;;;;;;4979649;28;20022;-79
2022/08/07 06:25:22;;;;;;;9.95;4.10;;;691.40;2304.00;;;;;;4971332;28;20089;-78
2022/08/07 06:27:48;;;;;;;11.35;4.53;;;691.50;2278.40;;;;;;4977351;28;20031;-79
2022/08/07 06:30:14;;;;;;;6.63;4.15;;;691.40;2304.00;;;;;;4984778;28;20446;-79
2022/08/07 06:32:40;;;;;;;7.90;4.10;;;691.60;2278.40;;;;;;4978091;28;20027;-78
2022/08/07 06:35:06;;;;;;;8.73;4.22;;;691.60;2252.80;;;;;;4978238;28;20019;-78
2022/08/07 06:37:31;;;;;;;8.27;4.25;;;691.60;2252.80;;;;;;4975524;28;20031;-79
2022/08/07 06:39:57;;;;;;;5.75;4.00;;;691.60;2252.80;;;;;;4983772;28;20487;-79
2022/08/07 06:42:35;;;;;;;9.98;4.25;;;691.80;2201.60;;;;;;4967863;28;20525;-80
2022/08/07 06:45:07;;;;;;;14.57;4.25;;;691.90;2201.60;;;;;;4982211;28;20035;-80
2022/08/07 06:47:34;;;;;;;7.95;4.05;;;691.90;2227.20;;;;;;4979033;28;20027;-78
2022/08/07 06:50:00;;;;;;;10.45;4.40;;;692.00;2201.60;;;;;;4979833;28;20121;-77
2022/08/07 06:52:33;;;;;;;5.10;3.60;;;716.80;2252.80;;;;;;4978331;28;20057;-80
2022/08/07 06:55:00;;;;;;;6.65;3.80;;;716.80;2201.60;;;;;;4982580;28;20019;-81
2022/08/07 06:57:28;;;;;;;7.90;3.72;;;692.10;2150.40;;;;;;4978145;28;20083;-78
2022/08/07 06:59:55;;;;;;;8.32;3.92;;;716.90;2176.00;;;;;;4977594;28;20030;-78
2022/08/07 07:02:24;;;;;;;10.60;4.57;;;716.80;2124.80;;;;;;4965736;28;20077;-78
2022/08/07 07:04:50;;;;;;;7.50;4.18;;;717.00;2099.20;;;;;;4983462;28;20128;-79
2022/08/07 07:07:16;;;;;;;5.93;4.18;;;717.20;2073.60;;;;;;4983433;28;20529;-79
2022/08/07 07:09:49;;;;;;;7.28;4.13;;;717.00;2073.60;;;;;;4993025;28;20117;-77
2022/08/07 07:12:42;;;;;;;6.60;3.47;;;717.10;2124.80;;;;;;4994196;28;20081;-78
2022/08/07 07:15:19;;;;;;;7.38;4.15;;;717.10;2099.20;;;;;;4973725;28;20755;-75
2022/08/07 07:17:55;;;;;;;9.25;3.90;;;717.40;2048.00;;;;;;4991582;28;20026;-75
2022/08/07 07:20:28;;;;;;;5.80;3.85;;;717.40;2048.00;;;;;;5004096;28;20025;-78
2022/08/07 07:22:54;;;;;;;6.30;3.95;;;717.50;2022.40;;;;;;5003419;28;20065;-76
2022/08/07 07:25:21;;;;;;;5.38;3.95;;;717.60;1996.80;;;;;;4994599;28;20141;-74
2022/08/07 07:27:57;;;;;;;7.80;4.03;;;717.40;2022.40;;;;;;5005517;28;20058;-77
2022/08/07 07:30:28;;;;;;;7.43;4.18;;;717.50;2022.40;;;;;;4993454;28;20026;-77
2022/08/07 07:32:57;;;;;;;6.35;4.60;;;742.40;1996.80;;;;;;4995001;28;20054;-78
2022/08/07 07:35:24;;;;;;;11.95;3.92;;;742.40;1971.20;;;;;;4997491;28;20027;-77
2022/08/07 07:37:51;;;;;;;10.00;4.47;;;742.50;1971.20;;;;;;4997499;28;20026;-77
2022/08/07 07:40:19;;;;;;;7.78;4.65;;;742.50;1945.60;;;;;;4996555;28;20026;-76
2022/08/07 07:42:50;;;;;;;7.20;4.30;;;742.60;1945.60;;;;;;4997404;28;20034;-79
2022/08/07 07:45:19;;;;;;;7.47;4.85;;;742.60;1945.60;;;;;;4997310;28;20026;-78
2022/08/07 07:47:46;;;;;;;7.97;5.22;;;742.60;1945.60;;;;;;4997156;28;20022;-77
2022/08/07 07:50:14;;;;;;;6.88;4.53;;;742.60;1920.00;;;;;;4997397;28;20026;-80
2022/08/07 07:52:42;;;;;;;11.15;4.53;;;742.90;1920.00;;;;;;4997381;28;20029;-81
2022/08/07 07:55:09;;;;;;;11.55;3.67;;;742.90;1894.40;;;;;;4997636;28;20133;-79
2022/08/07 07:57:35;;;;;;;8.52;4.22;;;742.90;1894.40;;;;;;4997447;28;20030;-80
2022/08/07 08:00:04;;;;;;;8.02;4.40;;;742.90;1868.80;;;;;;4997034;28;20149;-77
2022/08/07 08:02:33;;;;;;;8.43;3.92;;;742.90;1868.80;;;;;;4997267;28;20061;-77
2022/08/07 08:05:02;;;;;;;6.10;4.22;;;743.00;1868.80;;;;;;4997097;28;20034;-79
2022/08/07 08:07:30;;;;;;;11.98;3.97;;;742.90;1868.80;;;;;;4990943;28;20025;-81
2022/08/07 08:09:57;;;;;;;8.02;4.22;;;742.80;1920.00;;;;;;4992011;28;20029;-79
2022/08/07 08:12:23;;;;;;;7.45;4.38;;;742.90;1843.20;;;;;;4996934;28;20037;-77
2022/08/07 08:14:49;;;;;;;7.95;4.03;;;742.90;1868.80;;;;;;5003288;28;20109;-77
2022/08/07 08:17:17;;;;;;;7.43;4.35;;;743.00;1868.80;;;;;;5002383;28;20534;-77
2022/08/07 08:19:44;;;;;;;10.25;5.90;;;743.00;1868.80;;;;;;4996739;28;20027;-77
2022/08/07 08:27:42;;;;;;;6.22;4.68;;;742.90;1868.80;;;;;;4996662;28;20266;-79
2022/08/07 08:30:12;;;;;;;11.43;4.78;;;743.20;1817.60;;;;;;5010364;28;20492;-81
2022/08/07 08:32:42;;;;;;;9.38;5.47;;;743.30;1817.60;;;;;;4996476;28;20018;-78
2022/08/07 08:35:12;;;;;;;6.13;3.80;;;743.10;1817.60;;;;;;4996583;28;20018;-76
2022/08/07 08:37:40;;;;;;;6.68;4.55;;;743.20;1792.00;;;;;;4996431;28;20464;-78
2022/08/07 08:40:12;;;;;;;8.43;5.07;;;743.30;1792.00;;;;;;4996285;28;20050;-77
2022/08/07 08:42:59;;;;;;;7.32;5.20;;;743.30;1792.00;;;;;;4981562;28;20400;-78
2022/08/07 08:45:41;;;;;;;6.63;5.35;;;743.30;1792.00;;;;;;5005629;28;20034;-80
2022/08/07 08:48:21;;;;;;;9.23;5.32;;;768.00;1792.00;;;;;;5002303;28;20018;-77
2022/08/07 08:50:53;;;;;;;8.55;5.45;;;768.00;1792.00;;;;;;5002063;28;20018;-76
2022/08/07 08:53:34;;;;;;;12.30;5.78;;;768.00;1766.40;;;;;;5004988;28;20157;-76
2022/08/07 08:56:08;;;;;;;8.23;5.57;;;768.20;1766.40;;;;;;5006479;28;20472;-80
2022/08/07 08:58:56;;;;;;;11.73;4.93;;;768.40;1766.40;;;;;;4996255;28;20033;-80
2022/08/07 09:01:32;;;;;;;11.90;6.20;;;768.40;1715.20;;;;;;4987254;28;20026;-78
2022/08/07 09:04:24;;;;;;;7.03;5.85;;;768.40;1715.20;;;;;;4998129;28;20022;-77
2022/08/07 09:06:54;;;;;;;14.82;7.57;;;768.40;1740.80;;;;;;5003946;28;20054;-76
2022/08/07 09:09:53;;;;;;;6.20;5.03;;;768.40;1715.20;;;;;;4995862;28;20045;-76
2022/08/07 09:12:36;;;;;;;9.13;6.47;;;768.50;1715.20;;;;;;4995813;28;20027;-77
2022/08/07 09:15:10;;;;;;;10.70;6.65;;;768.70;1689.60;;;;;;4995713;28;20436;-77
2022/08/07 09:17:59;;;;;;;10.70;5.72;;;768.60;1689.60;;;;;;4977894;28;20376;-78
2022/08/07 09:20:42;;;;;;;12.88;8.65;;;768.60;1689.60;;;;;;4995804;28;20027;-77
2022/08/07 09:23:53;;;;;;;9.48;6.63;;;768.70;1689.60;;;;;;4982235;28;20018;-79
2022/08/07 09:27:07;;;;;;;8.13;4.90;;;768.90;1689.60;;;;;;4995182;28;20505;-76
2022/08/07 09:29:38;;;;;;;15.02;5.22;;;793.90;1664.00;;;;;;4963897;28;20035;-74
2022/08/07 09:32:12;;;;;;;7.55;4.93;;;794.00;1664.00;;;;;;4963107;28;20027;-77
2022/08/07 09:34:44;;;;;;;7.90;4.87;;;794.00;1638.40;;;;;;4963044;28;20110;-74
2022/08/07 09:37:22;;;;;;;5.78;4.65;;;794.10;1612.80;;;;;;4963818;28;20148;-79
2022/08/07 09:40:03;;;;;;;8.00;5.25;;;794.30;1612.80;;;;;;4961180;28;20083;-74
2022/08/07 09:42:59;;;;;;;7.80;5.13;;;794.40;1587.20;;;;;;4961477;28;20059;-79
2022/08/07 09:46:02;;;;;;;9.40;4.75;;;819.20;1612.80;;;;;;4964192;28;20086;-73
2022/08/07 09:48:54;;;;;;;11.63;5.15;;;819.20;1561.60;;;;;;4905893;29;20028;-78
2022/08/07 09:51:41;;;;;;;9.05;4.65;;;819.30;1561.60;;;;;;4869916;29;20055;-76
2022/08/07 09:54:16;;;;;;;7.22;4.13;;;819.60;1536.00;;;;;;4868210;29;20041;-76
2022/08/07 09:57:05;;;;;;;;;;;819.60;1536.00;;;;;;4867220;29;20548;-75
2022/08/07 09:59:42;;;;;;;10.50;4.80;;;819.80;1510.40;;;;;;4868643;29;19908;-75
2022/08/07 10:02:33;;;;;;;9.35;5.20;;;820.10;1484.80;;;;;;4869620;29;20037;-76
2022/08/07 10:05:43;;;;;;;7.15;4.18;;;844.80;1484.80;;;;;;4868459;29;20104;-78
2022/08/07 10:08:54;;;;;;;9.13;4.55;;;844.80;1484.80;;;;;;4867625;29;20117;-83
2022/08/07 10:11:49;;;;;;;12.95;4.78;;;845.20;1459.20;;;;;;4857891;29;20491;-78
2022/08/07 10:14:41;;;;;;;9.50;6.22;;;845.40;1433.60;;;;;;4860701;29;20138;-79
2022/08/07 10:17:33;;;;;;;8.60;4.60;;;845.50;1408.00;;;;;;4858643;29;20037;-80
2022/08/07 10:20:26;;;;;;;7.25;3.97;;;845.70;1433.60;;;;;;4859656;29;20102;-81
2022/08/07 10:23:14;;;;;;;13.05;4.32;;;870.40;1408.00;;;;;;4859601;29;20109;-80
2022/08/07 10:25:55;;;;;;;10.73;5.97;;;870.60;1382.40;;;;;;4870447;29;20168;-81
2022/08/07 10:28:41;;;;;;;8.82;6.85;;;870.50;1356.80;;;;;;4918916;29;20110;-80
2022/08/07 10:31:36;;;;;;;7.80;4.43;;;870.50;1356.80;;;;;;4941333;29;20525;-78
2022/08/07 10:34:11;;;;;;;8.05;4.30;;;870.70;1331.20;;;;;;4950962;29;20058;-79
2022/08/07 10:36:55;;;;;;;7.55;5.03;;;870.70;1331.20;;;;;;4951778;28;20039;-77
2022/08/07 10:39:38;;;;;;;7.32;4.07;;;870.80;1331.20;;;;;;4951753;28;20090;-78
2022/08/07 10:42:17;;;;;;;8.20;4.28;;;871.00;1331.20;;;;;;4964292;28;20053;-79
2022/08/07 10:44:54;;;;;;;7.18;4.85;;;871.00;1305.60;;;;;;4976560;28;20069;-80
2022/08/07 10:47:46;;;;;;;8.18;3.70;;;871.10;1305.60;;;;;;4993598;28;20102;-79
2022/08/07 10:50:20;;;;;;;5.25;4.20;;;871.10;1305.60;;;;;;4994022;28;20032;-81
2022/08/07 10:53:04;;;;;;;5.05;4.55;;;871.10;1305.60;;;;;;4994223;28;20022;-80
2022/08/07 10:55:42;;;;;;;9.57;5.00;;;871.20;1280.00;;;;;;4993768;28;20026;-78
2022/08/07 10:58:33;;;;;;;10.75;4.82;;;871.20;1280.00;;;;;;4982848;28;20034;-79
2022/08/07 11:01:26;;;;;;;18.13;4.65;;;896.20;1280.00;;;;;;5003782;28;20022;-79
2022/08/07 11:03:55;;;;;;;8.10;4.30;;;896.30;1254.40;;;;;;4984053;28;20026;-78
2022/08/07 11:06:53;;;;;;;6.47;4.65;;;896.50;1254.40;;;;;;5002198;28;20086;-77
2022/08/07 11:09:25;;;;;;;9.13;5.05;;;896.50;1254.40;;;;;;5002937;28;20084;-79
2022/08/07 11:12:16;;;;;;;11.45;4.57;;;896.30;1254.40;;;;;;4985591;28;20027;-80
2022/08/07 11:14:54;;;;;;;18.98;7.00;;;896.50;1254.40;;;;;;5009257;28;20041;-81
2022/08/07 11:17:29;;;;;;;9.27;4.53;;;896.50;1254.40;;;;;;4982500;28;20033;-80
2022/08/07 11:20:06;;;;;;;8.63;5.55;;;896.50;1254.40;;;;;;4997959;28;20034;-79
2022/08/07 11:22:44;;;;;;;10.75;4.70;;;896.80;1228.80;;;;;;4993569;28;20038;-80
2022/08/07 11:25:17;;;;;;;7.68;4.30;;;896.60;1203.20;;;;;;4985219;28;20049;-80
2022/08/07 11:28:09;;;;;;;6.68;4.80;;;896.50;1228.80;;;;;;4985359;28;20030;-79
2022/08/07 11:30:51;;;;;;;8.07;4.35;;;896.90;1203.20;;;;;;5004046;28;20113;-80
2022/08/07 11:33:32;;;;;;;6.03;4.20;;;896.80;1228.80;;;;;;5003892;28;20018;-80
2022/08/07 11:36:29;;;;;;;6.35;4.75;;;896.90;1203.20;;;;;;5003983;28;20097;-80
2022/08/07 11:39:24;;;;;;;6.63;4.35;;;896.80;1228.80;;;;;;4986222;28;20174;-79
2022/08/07 11:42:07;;;;;;;5.07;4.07;;;921.60;1203.20;;;;;;4998421;28;20041;-80
2022/08/07 11:44:50;;;;;;;10.18;4.70;;;921.80;1203.20;;;;;;4999967;28;20042;-79
2022/08/07 11:47:40;;;;;;;7.45;4.70;;;922.00;1203.20;;;;;;4999939;28;20023;-79
2022/08/07 11:50:24;;;;;;;5.45;4.15;;;922.00;1203.20;;;;;;5002675;28;20030;-80
2022/08/07 11:53:21;;;;;;;9.30;4.80;;;922.10;1203.20;;;;;;4975638;28;20026;-80
2022/08/07 11:56:17;;;;;;;7.00;4.07;;;922.10;1203.20;;;;;;5000952;28;20034;-79
2022/08/07 11:59:04;;;;;;;6.78;4.10;;;922.00;1177.60;;;;;;4981771;28;20030;-80
2022/08/07 12:01:47;;;;;;;6.95;4.28;;;922.20;1203.20;;;;;;5001687;28;20162;-81
2022/08/07 12:04:16;;;;;;;7.03;5.10;;;922.00;1177.60;;;;;;5002307;28;20018;-79
2022/08/07 12:06:55;;;;;;;6.45;4.40;;;922.30;1177.60;;;;;;5001788;28;20065;-80
2022/08/07 12:09:36;;;;;;;8.45;4.50;;;922.30;1177.60;;;;;;4998266;28;20081;-79
2022/08/07 12:12:11;;;;;;;10.27;4.82;;;922.30;1177.60;;;;;;5002495;28;20424;-81
2022/08/07 12:14:58;;;;;;;11.90;4.72;;;947.20;1177.60;;;;;;5002718;28;20105;-78
2022/08/07 12:17:41;;;;;;;10.23;4.68;;;922.50;1152.00;;;;;;5003232;28;20098;-81
2022/08/07 12:20:26;;;;;;;7.68;4.35;;;947.30;1152.00;;;;;;5003370;28;20041;-79
2022/08/07 12:23:08;;;;;;;;;;;947.30;1152.00;;;;;;4998694;28;20353;-84
2022/08/07 12:25:51;;;;;;;5.35;4.47;;;947.30;1152.00;;;;;;4996526;28;20012;-80
2022/08/07 12:28:25;;;;;;;9.50;4.95;;;947.20;1152.00;;;;;;4996672;28;20101;-79
2022/08/07 12:30:58;;;;;;;7.07;5.07;;;947.30;1126.40;;;;;;4982015;28;20048;-80
2022/08/07 12:33:28;;;;;;;5.85;4.32;;;947.20;1126.40;;;;;;4979042;28;20042;-80
2022/08/07 12:35:56;;;;;;;6.40;4.63;;;947.40;1126.40;;;;;;4996396;28;20361;-80
2022/08/07 12:38:23;;;;;;;5.50;4.07;;;947.50;1152.00;;;;;;4996601;28;20021;-83
2022/08/07 12:40:52;;;;;;;5.18;4.25;;;947.60;1126.40;;;;;;4996465;28;20472;-81
2022/08/07 12:43:22;;;;;;;7.80;4.38;;;947.60;1126.40;;;;;;5003341;28;20467;-82
2022/08/07 12:45:54;;;;;;;8.75;4.10;;;947.60;1152.00;;;;;;4986868;28;20081;-82
2022/08/07 12:48:35;;;;;;;12.98;4.20;;;947.70;1126.40;;;;;;4987094;28;20026;-82
2022/08/07 12:51:13;;;;;;;8.27;3.97;;;947.60;1152.00;;;;;;5004057;28;20053;-81